Terminal Aerodrome Forecast
Issued by NWS

Home | Current Version | Previous Version | Text Only | Print | Product List | Glossary On
Versions: 1 2 3 4 5 6 7 8 9 10 11 12 13 14 15 16 17 18 19 20 21
000
FTAK31 PAJN 142300
TAFASI
TAF
PASI 142328Z 1500/1524 25004KT P6SM OVC011
     FM150100 VRB04KT P6SM SCT010 BKN020
     FM150800 11004KT P6SM SCT008 OVC015
     FM152000 21005KT P6SM VCSH SCT015 BKN030=

USA.gov is the U.S. government's official web portal to all federal, state and local government web resources and services.